Nearby METAR* Reports

*"METAR [Météorologique Aviation Régulière] is the international standard code format for hourly surface weather observations which is analogous to the SA coding currently used in the US. The acronym roughly translates from French as Aviation Routine Weather Report." (Source: https://www.ncdc.noaa.gov/wdcmet/data-access-search-viewer-tools/metar-terminal-aerodrome-forecast-taf-faq)

 

KTEB - Teterboro, New Jersey, USA
Distance from station: ENE 2mi, 3km
Updated: 10/05/2022 10:11am
Rain, Mist, Overcast
Rain, Mist, Overcast
 Wind from varies
Wind: varies 7 mph , 11 km/h
Temperature: 54°F , 12°C
Dew Point: 52°F , 11°C
Humidity: 94%
Barometer: 29.93 inHg , 1013.5 hPa
Summary: Rain, Mist
Clouds: Overcast
Visibility: 2 miles , 3 km
Cloud details: Mostly cloudy 600 ft
Mostly cloudy 1800 ft
Overcast 3200 ft
2022/10/05 14:11 KTEB 051411Z VRB06KT 2SM RA BR BKN006 BKN018 OVC032 12/11 A2993 RMK AO2 LTG DSNT NE P0004 T01220111 $
KNYC - Nyc/Central Park, New York, USA
Distance from station: SE 8mi, 13km
Updated: 10/05/2022 10:03am
Light rain, Mist, Overcast
Light rain, Mist, Overcast
 Wind from NNE
Wind: NNE 9 mph , 15 km/h
Temperature: 55°F , 13°C
Dew Point: 54°F , 12°C
Humidity: 94%
Barometer: 29.96 inHg , 1014.6 hPa
Summary: Light rain, Mist
Clouds: Overcast
Visibility: 3 miles , 5 km
Cloud details: Overcast 700 ft
2022/10/05 14:03 KNYC 051403Z AUTO 03008KT 3SM -RA BR OVC007 13/12 A2996 RMK AO2 CIG 005V011 P0000 T01280117
KCDW - Caldwell, New Jersey, USA
Distance from station: W 11mi, 17km
Updated: 10/05/2022 10:17am
Rain, Mist, Overcast
Rain, Mist, Overcast
 Wind from varies
Wind: varies 5 mph , 7 km/h
Temperature: 54°F , 12°C
Dew Point: 52°F , 11°C
Humidity: 94%
Barometer: 29.95 inHg , 1014.2 hPa
Summary: Rain, Mist
Clouds: Overcast
Visibility: 2 1/2 miles , 4 km
Cloud details: Mostly cloudy 1100 ft
Overcast 1600 ft
2022/10/05 14:17 KCDW 051417Z VRB04KT 2 1/2SM RA BR BKN011 OVC016 12/11 A2995 RMK AO2 CIG 006V012 P0003 T01220106
 
KLGA - Nyc/La Guardia, New York, USA
Distance from station: ESE 12mi, 19km
Updated: 10/05/2022 9:51am
Light rain, Mist, Overcast
Light rain, Mist, Overcast
 Wind from N
Wind: N 10 mph , 17 km/h
Temperature: 55°F , 13°C
Dew Point: 52°F , 11°C
Humidity: 88%
Barometer: 29.93 inHg , 1013.5 hPa
Summary: Light rain, Mist
Clouds: Overcast
Visibility: 2 1/2 miles , 4 km
Cloud details: Mostly cloudy 900 ft
Mostly cloudy 1400 ft
Overcast 2300 ft
2022/10/05 13:51 KLGA 051351Z 36009KT 2 1/2SM -RA BR BKN009 BKN014 OVC023 13/11 A2993 RMK AO2 LTG DSNT NW SLP134 P0004 T01280111
KEWR - Newark, New Jersey, USA
Distance from station: SSW 13mi, 20km
Updated: 10/05/2022 9:51am
Light rain, Mist, Overcast
Light rain, Mist, Overcast
 Wind from NNE
Wind: NNE 14 mph , 22 km/h
Temperature: 52°F , 11°C
Dew Point: 52°F , 11°C
Humidity: 100%
Barometer: 29.93 inHg , 1013.5 hPa
Summary: Light rain, Mist
Clouds: Overcast
Visibility: 2 miles , 3 km
Cloud details: Mostly cloudy 500 ft
Mostly cloudy 1100 ft
Overcast 5000 ft
2022/10/05 13:51 KEWR 051351Z 02012KT 2SM -RA BR BKN005 BKN011 OVC050 11/11 A2993 RMK AO2 SFC VIS 2 1/2 LTG DSNT N SLP133 P0007 T01110111
KMMU - Morristown Muni, New Jersey, USA
Distance from station: WSW 18mi, 29km
Updated: 10/05/2022 9:45am
Overcast
Overcast
 Wind from NE
Wind: NE 7 mph , 11 km/h
Temperature: 59°F , 15°C
Dew Point: 59°F , 15°C
Humidity: 100%
Barometer: 29.95 inHg , 1014.2 hPa
Clouds: Overcast
Visibility: 10 miles , 16 km
Cloud details: Overcast 1200 ft
2022/10/05 13:45 KMMU 051345Z 05006KT 10SM OVC012 15/15 A2995
 
KLDJ - Linden, New Jersey, USA
Distance from station: SSW 19mi, 30km
Updated: 10/05/2022 10:15am
Rain, Overcast
Rain, Overcast
 Wind from NNE
Wind: NNE 7 mph , 11 km/h
Temperature: 55°F , 13°C
Dew Point: 54°F , 12°C
Humidity: 94%
Barometer: 29.93 inHg , 1013.5 hPa
Summary: Rain
Clouds: Overcast
Visibility: 7 miles , 11 km
Cloud details: Overcast 600 ft
2022/10/05 14:15 KLDJ 051415Z AUTO 03006KT 7SM RA OVC006 13/12 A2993 RMK AO2 T01320121
KJFK - Nyc/Jfk Arpt, New York, USA
Distance from station: SE 23mi, 36km
Updated: 10/05/2022 9:51am
Overcast
Overcast
 Wind from NNE
Wind: NNE 14 mph , 22 km/h
Temperature: 57°F , 14°C
Dew Point: 55°F , 13°C
Humidity: 94%
Barometer: 29.92 inHg , 1013.2 hPa
Clouds: Overcast
Visibility: 10 miles , 16 km
Cloud details: Few Clouds 800 ft
Mostly cloudy 1300 ft
Overcast 2700 ft
2022/10/05 13:51 KJFK 051351Z 02012KT 10SM FEW008 BKN013 OVC027 14/13 A2992 RMK AO2 LTG DSNT NW SLP132 T01390133
KHPN - White Plains, New York, USA
Distance from station: NE 25mi, 40km
Updated: 10/05/2022 9:56am
Light rain, Mist, Overcast
Light rain, Mist, Overcast
 Wind from NNW
Wind: NNW 8 mph , 13 km/h
Temperature: 55°F , 13°C
Dew Point: 54°F , 12°C
Humidity: 94%
Barometer: 29.93 inHg , 1013.5 hPa
Summary: Light rain, Mist
Clouds: Overcast
Visibility: 02 miles , 3 km
Cloud details: Partly cloudy 700 ft
Mostly cloudy 1800 ft
Overcast 2400 ft
2022/10/05 13:56 KHPN 051356Z 34007KT 02SM -RA BR SCT007 BKN018 OVC024 13/12 A2993
 
KSMQ - Somerville, New Jersey, USA
Distance from station: WSW 35mi, 56km
Updated: 10/05/2022 10:12am
Overcast
Overcast
 Wind from NNW
Wind: NNW 6 mph , 9 km/h
Temperature: 57°F , 14°C
Dew Point: 55°F , 13°C
Humidity: 94%
Barometer: 29.92 inHg , 1013.2 hPa
Clouds: Overcast
Visibility: 10 miles , 16 km
Cloud details: Mostly cloudy 1200 ft
Overcast 1700 ft
2022/10/05 14:12 KSMQ 051412Z AUTO 34005KT 10SM BKN012 OVC017 14/13 A2992 RMK AO2 T01440128
K12N - Andover, New Jersey, USA
Distance from station: WNW 36mi, 57km
Updated: 10/05/2022 9:54am

 Wind from varies
Wind: varies 6 mph , 9 km/h
Temperature: 55°F , 13°C
Dew Point: 52°F , 11°C
Humidity: 88%
Barometer: 29.96 inHg , 1014.6 hPa
2022/10/05 13:54 K12N 051354Z AUTO VRB05KT 13/11 A2996 RMK AO1 SLP146 P0001 T01330106
KFRG - Farmingdale, New York, USA
Distance from station: ESE 36mi, 58km
Updated: 10/05/2022 9:53am
Overcast
Overcast
 Wind from NE
Wind: NE 10 mph , 17 km/h
Temperature: 57°F , 14°C
Dew Point: 55°F , 13°C
Humidity: 94%
Barometer: 29.92 inHg , 1013.2 hPa
Clouds: Overcast
Visibility: 10 miles , 16 km
Cloud details: Overcast 1000 ft
2022/10/05 13:53 KFRG 051353Z AUTO 04009KT 10SM OVC010 14/13 A2992 RMK AO2 CIG 008V013 SLP129 T01390128
 
KFWN - Sussex, New Jersey, USA
Distance from station: NW 37mi, 60km
Updated: 10/05/2022 9:53am
Light rain, Overcast
Light rain, Overcast
 Wind from NE
Wind: NE 8 mph , 13 km/h
Temperature: 55°F , 13°C
Dew Point: 52°F , 11°C
Humidity: 88%
Barometer: 29.98 inHg , 1015.2 hPa
Summary: Light rain
Clouds: Overcast
Visibility: 8 miles , 13 km
Cloud details: Mostly cloudy 700 ft
Overcast 1900 ft
2022/10/05 13:53 KFWN 051353Z AUTO 05007KT 8SM -RA BKN007 OVC019 13/11 A2998 RMK AO2 LTG DSNT SE RAB51 CIG 006V010 SLP151 P0000 T01280111
KSWF - Newburgh/Stewart, New York, USA
Distance from station: 0 44mi, 72km
Updated: 10/05/2022 9:45am
Light drizzle, Mist, Overcast
Light drizzle, Mist, Overcast
 Wind from NE
Wind: NE 7 mph , 11 km/h, Gust: 17 mph , 28 km/h
Temperature: 52°F , 11°C
Dew Point: 52°F , 11°C
Humidity: 100%
Barometer: 29.96 inHg , 1014.6 hPa
Summary: Light drizzle, Mist
Clouds: Overcast
Visibility: 4 miles , 6 km
Cloud details: Overcast 800 ft
2022/10/05 13:45 KSWF 051345Z 04006G15KT 4SM -DZ BR OVC008 11/11 A2996
KMGJ - Montgomery, New York, USA
Distance from station: NNW 47mi, 75km
Updated: 10/05/2022 9:54am
Light rain, Overcast
Light rain, Overcast
 Wind from NNE
Wind: NNE 17 mph , 28 km/h
Temperature: 52°F , 11°C
Dew Point: 50°F , 10°C
Humidity: 94%
Barometer: 29.96 inHg , 1014.6 hPa
Summary: Light rain
Clouds: Overcast
Visibility: 10 miles , 16 km
Cloud details: Mostly cloudy 900 ft
Mostly cloudy 4200 ft
Overcast 5500 ft
2022/10/05 13:54 KMGJ 051354Z AUTO 03015KT 10SM -RA BKN009 BKN042 OVC055 11/10 A2996 RMK AO2 RAB00 SLP146 P0001 T01110100
 
KDXR - Danbury, Connecticut, USA
Distance from station: NE 47mi, 76km
Updated: 10/05/2022 9:53am
Light rain, Overcast
Light rain, Overcast
 Wind from NE
Wind: NE 5 mph , 7 km/h
Temperature: 59°F , 15°C
Dew Point: 54°F , 12°C
Humidity: 82%
Barometer: 29.95 inHg , 1014.2 hPa
Summary: Light rain
Clouds: Overcast
Visibility: 10 miles , 16 km
Cloud details: Overcast 1200 ft
2022/10/05 13:53 KDXR 051353Z 05004KT 10SM -RA OVC012 15/12 A2995 RMK AO2 RAB35 SLP142 P0000 T01500122
KBLM - Belmar/Farmdale, New Jersey, USA
Distance from station: S 48mi, 77km
Updated: 10/05/2022 9:56am
Overcast
Overcast
 Wind from NNE
Wind: NNE 12 mph , 19 km/h
Temperature: 57°F , 14°C
Barometer: 29.91 inHg , 1012.9 hPa
Clouds: Overcast
Visibility: 10 miles , 16 km
Cloud details: Overcast 800 ft
2022/10/05 13:56 KBLM 051356Z AUTO 03010KT 10SM OVC008 14/ A2991 RMK AO2 SLPNO T0144